sensor_id;sensor_type;location;lat;lon;timestamp;pressure;altitude;pressure_sealevel;temperature;humidity
36502;BME280;25393;46.108;3.390;2023-05-01T00:02:10;98045.09;;;10.91;86.46
36502;BME280;25393;46.108;3.390;2023-05-01T00:04:37;98041.47;;;10.84;85.78
36502;BME280;25393;46.108;3.390;2023-05-01T00:07:03;98025.47;;;10.61;87.65
36502;BME280;25393;46.108;3.390;2023-05-01T00:09:30;98043.81;;;10.71;88.53
36502;BME280;25393;46.108;3.390;2023-05-01T00:11:59;98041.31;;;10.77;87.82
36502;BME280;25393;46.108;3.390;2023-05-01T00:14:29;98036.38;;;10.66;86.84
36502;BME280;25393;46.108;3.390;2023-05-01T00:16:56;98030.28;;;10.66;88.86
36502;BME280;25393;46.108;3.390;2023-05-01T00:19:23;98041.38;;;10.61;87.96
36502;BME280;25393;46.108;3.390;2023-05-01T00:21:49;98031.59;;;10.45;89.16
36502;BME280;25393;46.108;3.390;2023-05-01T00:24:17;98017.53;;;10.45;89.18
36502;BME280;25393;46.108;3.390;2023-05-01T00:26:44;98018.34;;;10.62;89.27
36502;BME280;25393;46.108;3.390;2023-05-01T00:29:10;98026.56;;;10.83;87.35
36502;BME280;25393;46.108;3.390;2023-05-01T00:31:37;98026.25;;;10.70;87.68
36502;BME280;25393;46.108;3.390;2023-05-01T00:34:04;98026.66;;;10.42;89.73
36502;BME280;25393;46.108;3.390;2023-05-01T00:36:31;98024.88;;;10.27;91.11
36502;BME280;25393;46.108;3.390;2023-05-01T00:39:01;98029.66;;;10.31;91.81
36502;BME280;25393;46.108;3.390;2023-05-01T00:41:30;98014.41;;;10.17;91.05
36502;BME280;25393;46.108;3.390;2023-05-01T00:43:56;98020.06;;;10.14;92.05
36502;BME280;25393;46.108;3.390;2023-05-01T00:46:23;98020.41;;;10.19;92.77
36502;BME280;25393;46.108;3.390;2023-05-01T00:48:51;98015.91;;;10.12;93.17
36502;BME280;25393;46.108;3.390;2023-05-01T00:51:18;98011.63;;;10.19;94.04
36502;BME280;25393;46.108;3.390;2023-05-01T00:53:45;98003.31;;;10.14;95.01
36502;BME280;25393;46.108;3.390;2023-05-01T00:56:12;98005.16;;;10.13;95.74
36502;BME280;25393;46.108;3.390;2023-05-01T00:58:39;98010.97;;;10.17;96.23
36502;BME280;25393;46.108;3.390;2023-05-01T01:01:06;98002.16;;;10.08;97.27
36502;BME280;25393;46.108;3.390;2023-05-01T01:03:38;98010.75;;;10.10;98.69
36502;BME280;25393;46.108;3.390;2023-05-01T01:11:54;98008.28;;;10.41;99.21
36502;BME280;25393;46.108;3.390;2023-05-01T01:14:32;98003.47;;;10.44;98.26
36502;BME280;25393;46.108;3.390;2023-05-01T01:17:12;97997.50;;;10.42;98.36
36502;BME280;25393;46.108;3.390;2023-05-01T01:22:46;97996.28;;;10.69;93.74
36502;BME280;25393;46.108;3.390;2023-05-01T01:25:44;97998.81;;;10.46;94.87
36502;BME280;25393;46.108;3.390;2023-05-01T01:29:20;97993.88;;;10.43;97.23
36502;BME280;25393;46.108;3.390;2023-05-01T01:36:39;97981.59;;;10.42;96.96
36502;BME280;25393;46.108;3.390;2023-05-01T01:39:21;97984.25;;;10.50;96.93
36502;BME280;25393;46.108;3.390;2023-05-01T01:41:50;97984.56;;;10.56;96.78
36502;BME280;25393;46.108;3.390;2023-05-01T01:44:24;97949.66;;;10.36;96.07
36502;BME280;25393;46.108;3.390;2023-05-01T01:46:54;97980.28;;;10.38;96.41
36502;BME280;25393;46.108;3.390;2023-05-01T01:49:23;97974.34;;;10.28;97.20
36502;BME280;25393;46.108;3.390;2023-05-01T01:51:52;97983.47;;;10.34;96.34
36502;BME280;25393;46.108;3.390;2023-05-01T01:54:24;97974.16;;;10.38;96.29
36502;BME280;25393;46.108;3.390;2023-05-01T01:56:52;97974.19;;;10.30;97.43
36502;BME280;25393;46.108;3.390;2023-05-01T01:59:22;97980.63;;;10.35;97.76
36502;BME280;25393;46.108;3.390;2023-05-01T02:01:49;97968.84;;;10.54;96.97
36502;BME280;25393;46.108;3.390;2023-05-01T02:04:17;97962.22;;;10.50;96.72
36502;BME280;25393;46.108;3.390;2023-05-01T02:06:44;97963.88;;;10.51;97.49
36502;BME280;25393;46.108;3.390;2023-05-01T02:09:15;97959.56;;;10.50;96.70
36502;BME280;25393;46.108;3.390;2023-05-01T02:11:44;97969.69;;;10.46;97.43
36502;BME280;25393;46.108;3.390;2023-05-01T02:14:12;97969.69;;;10.38;97.99
36502;BME280;25393;46.108;3.390;2023-05-01T02:16:42;97950.69;;;10.27;99.22
36502;BME280;25393;46.108;3.390;2023-05-01T02:19:14;97959.75;;;10.40;98.80
36502;BME280;25393;46.108;3.390;2023-05-01T02:21:41;97972.00;;;10.41;99.12
36502;BME280;25393;46.108;3.390;2023-05-01T02:24:11;97958.75;;;10.41;98.35
36502;BME280;25393;46.108;3.390;2023-05-01T02:26:41;97967.19;;;10.45;98.62
36502;BME280;25393;46.108;3.390;2023-05-01T02:29:09;97955.09;;;10.42;98.42
36502;BME280;25393;46.108;3.390;2023-05-01T02:31:37;97967.66;;;10.57;97.64
36502;BME280;25393;46.108;3.390;2023-05-01T02:34:03;97960.56;;;10.49;98.08
36502;BME280;25393;46.108;3.390;2023-05-01T02:36:30;97957.06;;;10.57;96.88
36502;BME280;25393;46.108;3.390;2023-05-01T02:38:59;97948.59;;;10.61;95.87
36502;BME280;25393;46.108;3.390;2023-05-01T02:41:27;97952.91;;;10.62;95.95
36502;BME280;25393;46.108;3.390;2023-05-01T02:43:59;97953.94;;;10.45;97.78
36502;BME280;25393;46.108;3.390;2023-05-01T02:46:27;97953.63;;;10.48;97.57
36502;BME280;25393;46.108;3.390;2023-05-01T02:48:56;97954.97;;;10.44;97.68
36502;BME280;25393;46.108;3.390;2023-05-01T02:51:24;97951.19;;;10.30;98.64
36502;BME280;25393;46.108;3.390;2023-05-01T02:53:53;97955.00;;;10.20;99.32
36502;BME280;25393;46.108;3.390;2023-05-01T02:56:20;97965.59;;;10.20;99.88
36502;BME280;25393;46.108;3.390;2023-05-01T02:58:47;97954.16;;;10.11;99.98
36502;BME280;25393;46.108;3.390;2023-05-01T03:01:15;97962.13;;;10.19;99.87
36502;BME280;25393;46.108;3.390;2023-05-01T03:03:45;97958.47;;;10.12;99.17
36502;BME280;25393;46.108;3.390;2023-05-01T03:06:15;97955.13;;;10.10;98.58
36502;BME280;25393;46.108;3.390;2023-05-01T03:08:44;97958.63;;;10.11;99.36
36502;BME280;25393;46.108;3.390;2023-05-01T03:11:15;97953.50;;;10.09;98.72
36502;BME280;25393;46.108;3.390;2023-05-01T03:13:45;97947.19;;;10.10;97.92
36502;BME280;25393;46.108;3.390;2023-05-01T03:16:15;97951.00;;;10.08;97.51
36502;BME280;25393;46.108;3.390;2023-05-01T03:18:43;97946.88;;;9.97;96.95
36502;BME280;25393;46.108;3.390;2023-05-01T03:21:10;97943.75;;;9.93;97.08
36502;BME280;25393;46.108;3.390;2023-05-01T03:23:39;97951.19;;;9.90;97.23
36502;BME280;25393;46.108;3.390;2023-05-01T03:26:05;97941.59;;;9.89;97.51
36502;BME280;25393;46.108;3.390;2023-05-01T03:28:32;97947.22;;;10.02;98.03
36502;BME280;25393;46.108;3.390;2023-05-01T03:30:59;97959.28;;;9.96;99.63
36502;BME280;25393;46.108;3.390;2023-05-01T03:33:26;97952.19;;;9.89;99.23
36502;BME280;25393;46.108;3.390;2023-05-01T03:36:00;97943.59;;;9.79;100.00
36502;BME280;25393;46.108;3.390;2023-05-01T03:38:32;97956.00;;;9.94;100.00
36502;BME280;25393;46.108;3.390;2023-05-01T03:40:58;97942.13;;;9.84;100.00
36502;BME280;25393;46.108;3.390;2023-05-01T03:43:25;97941.09;;;9.85;100.00
36502;BME280;25393;46.108;3.390;2023-05-01T03:45:51;97958.31;;;9.89;100.00
36502;BME280;25393;46.108;3.390;2023-05-01T03:48:19;97947.75;;;9.81;100.00
36502;BME280;25393;46.108;3.390;2023-05-01T03:50:45;97952.19;;;9.73;100.00
36502;BME280;25393;46.108;3.390;2023-05-01T03:53:12;97954.34;;;9.77;99.73
36502;BME280;25393;46.108;3.390;2023-05-01T03:55:41;97962.13;;;9.79;100.00
36502;BME280;25393;46.108;3.390;2023-05-01T03:58:08;97965.28;;;9.74;100.00
36502;BME280;25393;46.108;3.390;2023-05-01T04:00:36;97962.13;;;9.71;100.00
36502;BME280;25393;46.108;3.390;2023-05-01T04:03:03;97962.47;;;9.60;99.90
36502;BME280;25393;46.108;3.390;2023-05-01T04:05:30;97957.66;;;9.55;99.63
36502;BME280;25393;46.108;3.390;2023-05-01T04:07:57;97957.81;;;9.45;98.68
36502;BME280;25393;46.108;3.390;2023-05-01T04:10:23;97968.03;;;9.40;98.81
36502;BME280;25393;46.108;3.390;2023-05-01T04:12:50;97962.09;;;9.38;98.73
36502;BME280;25393;46.108;3.390;2023-05-01T04:15:16;97954.78;;;9.32;98.16
36502;BME280;25393;46.108;3.390;2023-05-01T04:17:43;97973.16;;;9.34;99.33
36502;BME280;25393;46.108;3.390;2023-05-01T04:20:11;97977.47;;;9.35;100.00
36502;BME280;25393;46.108;3.390;2023-05-01T04:22:38;97957.28;;;9.34;100.00
36502;BME280;25393;46.108;3.390;2023-05-01T04:25:05;97977.16;;;9.54;100.00
36502;BME280;25393;46.108;3.390;2023-05-01T04:27:32;97979.34;;;9.67;100.00
36502;BME280;25393;46.108;3.390;2023-05-01T04:29:59;97976.50;;;9.68;100.00
36502;BME280;25393;46.108;3.390;2023-05-01T04:32:26;97985.94;;;9.71;100.00
36502;BME280;25393;46.108;3.390;2023-05-01T04:34:52;97994.56;;;9.81;100.00
36502;BME280;25393;46.108;3.390;2023-05-01T04:37:19;97978.31;;;9.76;100.00
36502;BME280;25393;46.108;3.390;2023-05-01T04:39:48;97985.94;;;9.87;100.00
36502;BME280;25393;46.108;3.390;2023-05-01T04:42:16;97997.19;;;9.89;100.00
36502;BME280;25393;46.108;3.390;2023-05-01T04:44:44;97989.09;;;9.82;100.00
36502;BME280;25393;46.108;3.390;2023-05-01T04:47:12;97997.03;;;9.74;100.00
36502;BME280;25393;46.108;3.390;2023-05-01T04:49:39;97985.25;;;9.61;100.00
36502;BME280;25393;46.108;3.390;2023-05-01T04:52:06;97988.75;;;9.69;100.00
36502;BME280;25393;46.108;3.390;2023-05-01T04:54:32;97994.72;;;9.79;100.00
36502;BME280;25393;46.108;3.390;2023-05-01T04:56:59;98007.13;;;9.87;100.00
36502;BME280;25393;46.108;3.390;2023-05-01T04:59:25;97997.03;;;9.82;100.00
36502;BME280;25393;46.108;3.390;2023-05-01T05:01:52;98014.06;;;9.96;100.00
36502;BME280;25393;46.108;3.390;2023-05-01T05:04:18;98022.00;;;9.96;100.00
36502;BME280;25393;46.108;3.390;2023-05-01T05:06:45;98013.75;;;9.99;100.00
36502;BME280;25393;46.108;3.390;2023-05-01T05:09:15;98024.03;;;10.18;100.00
36502;BME280;25393;46.108;3.390;2023-05-01T05:11:48;98013.75;;;10.31;100.00
36502;BME280;25393;46.108;3.390;2023-05-01T05:14:18;98014.56;;;10.40;100.00
36502;BME280;25393;46.108;3.390;2023-05-01T05:16:44;98014.44;;;10.33;100.00
36502;BME280;25393;46.108;3.390;2023-05-01T05:19:15;98017.19;;;10.56;100.00
36502;BME280;25393;46.108;3.390;2023-05-01T05:21:50;98021.00;;;10.62;100.00
36502;BME280;25393;46.108;3.390;2023-05-01T05:24:19;98028.91;;;10.70;100.00
36502;BME280;25393;46.108;3.390;2023-05-01T05:26:50;98024.63;;;10.69;100.00
36502;BME280;25393;46.108;3.390;2023-05-01T05:29:19;98016.47;;;10.70;100.00
36502;BME280;25393;46.108;3.390;2023-05-01T05:31:48;98031.75;;;10.68;100.00
36502;BME280;25393;46.108;3.390;2023-05-01T05:34:14;98030.75;;;10.69;100.00
36502;BME280;25393;46.108;3.390;2023-05-01T05:36:43;98038.19;;;10.74;100.00
36502;BME280;25393;46.108;3.390;2023-05-01T05:39:09;98033.84;;;10.81;100.00
36502;BME280;25393;46.108;3.390;2023-05-01T05:41:38;98033.34;;;10.85;100.00
36502;BME280;25393;46.108;3.390;2023-05-01T05:44:04;98035.44;;;11.06;100.00
36502;BME280;25393;46.108;3.390;2023-05-01T05:46:31;98035.91;;;11.10;100.00
36502;BME280;25393;46.108;3.390;2023-05-01T05:48:58;98042.53;;;11.14;100.00
36502;BME280;25393;46.108;3.390;2023-05-01T05:51:25;98028.91;;;11.17;100.00
36502;BME280;25393;46.108;3.390;2023-05-01T05:53:51;98027.00;;;11.33;100.00
36502;BME280;25393;46.108;3.390;2023-05-01T05:56:18;98039.25;;;11.42;100.00
36502;BME280;25393;46.108;3.390;2023-05-01T05:58:44;98037.31;;;11.59;100.00
36502;BME280;25393;46.108;3.390;2023-05-01T06:01:11;98036.25;;;11.68;100.00
36502;BME280;25393;46.108;3.390;2023-05-01T06:03:38;98043.09;;;11.93;98.77
36502;BME280;25393;46.108;3.390;2023-05-01T06:06:05;98034.25;;;12.01;97.54
36502;BME280;25393;46.108;3.390;2023-05-01T06:08:31;98032.13;;;12.19;97.07
36502;BME280;25393;46.108;3.390;2023-05-01T06:11:00;98034.97;;;12.32;95.29
36502;BME280;25393;46.108;3.390;2023-05-01T06:13:27;98049.50;;;12.44;94.12
36502;BME280;25393;46.108;3.390;2023-05-01T06:15:53;98039.88;;;12.43;95.09
36502;BME280;25393;46.108;3.390;2023-05-01T06:18:20;98045.75;;;12.53;94.30
36502;BME280;25393;46.108;3.390;2023-05-01T06:20:49;98043.38;;;12.59;94.04
36502;BME280;25393;46.108;3.390;2023-05-01T06:23:19;98049.06;;;12.56;95.55
36502;BME280;25393;46.108;3.390;2023-05-01T06:25:49;98045.75;;;12.53;96.38
36502;BME280;25393;46.108;3.390;2023-05-01T06:28:17;98053.56;;;12.55;97.00
36502;BME280;25393;46.108;3.390;2023-05-01T06:30:43;98048.69;;;12.59;97.88
36502;BME280;25393;46.108;3.390;2023-05-01T06:33:10;98052.38;;;12.58;97.77
36502;BME280;25393;46.108;3.390;2023-05-01T06:35:40;98054.28;;;12.64;95.16
36502;BME280;25393;46.108;3.390;2023-05-01T06:38:06;98051.00;;;12.62;94.51
36502;BME280;25393;46.108;3.390;2023-05-01T06:40:33;98056.69;;;12.88;93.20
36502;BME280;25393;46.108;3.390;2023-05-01T06:43:03;98052.94;;;12.97;92.29
36502;BME280;25393;46.108;3.390;2023-05-01T06:45:30;98053.66;;;13.06;91.40
36502;BME280;25393;46.108;3.390;2023-05-01T06:47:57;98048.75;;;13.32;84.47
36502;BME280;25393;46.108;3.390;2023-05-01T06:50:23;98059.09;;;13.41;85.21
36502;BME280;25393;46.108;3.390;2023-05-01T06:52:50;98046.41;;;13.79;86.28
36502;BME280;25393;46.108;3.390;2023-05-01T06:55:17;98057.28;;;14.20;85.41
36502;BME280;25393;46.108;3.390;2023-05-01T06:57:49;98044.28;;;14.32;82.42
36502;BME280;25393;46.108;3.390;2023-05-01T07:00:17;98053.56;;;14.36;82.42
36502;BME280;25393;46.108;3.390;2023-05-01T07:02:47;98060.78;;;14.21;82.62
36502;BME280;25393;46.108;3.390;2023-05-01T07:05:14;98065.09;;;14.22;83.17
36502;BME280;25393;46.108;3.390;2023-05-01T07:07:41;98061.44;;;14.44;85.92
36502;BME280;25393;46.108;3.390;2023-05-01T07:10:18;98064.09;;;14.72;79.93
36502;BME280;25393;46.108;3.390;2023-05-01T07:12:48;98063.53;;;14.76;78.61
36502;BME280;25393;46.108;3.390;2023-05-01T07:15:14;98057.78;;;15.07;78.14
36502;BME280;25393;46.108;3.390;2023-05-01T07:17:49;98058.63;;;15.55;76.13
36502;BME280;25393;46.108;3.390;2023-05-01T07:20:18;98052.81;;;15.45;74.21
36502;BME280;25393;46.108;3.390;2023-05-01T07:22:49;98054.06;;;15.42;74.40
36502;BME280;25393;46.108;3.390;2023-05-01T07:25:17;98065.84;;;15.55;75.79
36502;BME280;25393;46.108;3.390;2023-05-01T07:27:44;98066.81;;;15.47;74.30
36502;BME280;25393;46.108;3.390;2023-05-01T07:30:13;98056.09;;;15.34;74.77
36502;BME280;25393;46.108;3.390;2023-05-01T07:32:40;98066.16;;;15.38;74.43
36502;BME280;25393;46.108;3.390;2023-05-01T07:35:07;98061.84;;;15.37;75.33
36502;BME280;25393;46.108;3.390;2023-05-01T07:37:34;98068.34;;;15.63;73.81
36502;BME280;25393;46.108;3.390;2023-05-01T07:40:01;98056.09;;;15.88;71.98
36502;BME280;25393;46.108;3.390;2023-05-01T07:42:29;98058.38;;;15.97;70.17
36502;BME280;25393;46.108;3.390;2023-05-01T07:44:56;98058.22;;;16.25;69.76
36502;BME280;25393;46.108;3.390;2023-05-01T07:47:22;98055.16;;;16.35;70.07
36502;BME280;25393;46.108;3.390;2023-05-01T07:49:49;98057.25;;;16.59;67.68
36502;BME280;25393;46.108;3.390;2023-05-01T07:52:18;98048.34;;;16.78;68.27
36502;BME280;25393;46.108;3.390;2023-05-01T07:54:49;98056.41;;;16.85;68.06
36502;BME280;25393;46.108;3.390;2023-05-01T07:57:19;98049.59;;;16.95;67.38
36502;BME280;25393;46.108;3.390;2023-05-01T07:59:53;98040.91;;;17.13;66.38
36502;BME280;25393;46.108;3.390;2023-05-01T08:02:20;98054.00;;;17.41;65.91
36502;BME280;25393;46.108;3.390;2023-05-01T08:04:46;98044.25;;;17.60;64.72
36502;BME280;25393;46.108;3.390;2023-05-01T08:07:19;98038.28;;;17.95;65.03
36502;BME280;25393;46.108;3.390;2023-05-01T08:09:46;98023.94;;;18.15;63.71
36502;BME280;25393;46.108;3.390;2023-05-01T08:12:13;98046.91;;;18.04;63.87
36502;BME280;25393;46.108;3.390;2023-05-01T08:14:40;98029.66;;;17.93;63.95
36502;BME280;25393;46.108;3.390;2023-05-01T08:17:06;98036.69;;;17.88;64.07
36502;BME280;25393;46.108;3.390;2023-05-01T08:19:33;98030.81;;;17.66;63.37
36502;BME280;25393;46.108;3.390;2023-05-01T08:22:00;98013.47;;;18.07;63.08
36502;BME280;25393;46.108;3.390;2023-05-01T08:24:26;98027.50;;;18.33;63.59
36502;BME280;25393;46.108;3.390;2023-05-01T08:26:53;98040.50;;;18.86;62.11
36502;BME280;25393;46.108;3.390;2023-05-01T08:29:19;98040.56;;;18.61;61.14
36502;BME280;25393;46.108;3.390;2023-05-01T08:31:47;98039.81;;;18.16;61.96
36502;BME280;25393;46.108;3.390;2023-05-01T08:34:14;98052.44;;;18.09;62.79
36502;BME280;25393;46.108;3.390;2023-05-01T08:36:43;98050.53;;;17.85;64.94
36502;BME280;25393;46.108;3.390;2023-05-01T08:39:09;98055.72;;;17.73;63.25
36502;BME280;25393;46.108;3.390;2023-05-01T08:41:36;98048.34;;;17.69;65.65
36502;BME280;25393;46.108;3.390;2023-05-01T08:44:03;98050.03;;;17.94;64.67
36502;BME280;25393;46.108;3.390;2023-05-01T08:49:01;98047.84;;;18.16;63.13
36502;BME280;25393;46.108;3.390;2023-05-01T08:51:31;98051.13;;;18.56;62.38
36502;BME280;25393;46.108;3.390;2023-05-01T08:54:00;98040.31;;;19.06;59.45
36502;BME280;25393;46.108;3.390;2023-05-01T08:56:29;98050.59;;;18.90;60.13
36502;BME280;25393;46.108;3.390;2023-05-01T08:58:57;98051.13;;;18.25;61.27
36502;BME280;25393;46.108;3.390;2023-05-01T09:01:26;98040.75;;;17.66;64.26
36502;BME280;25393;46.108;3.390;2023-05-01T09:03:53;98051.09;;;17.42;65.53
36502;BME280;25393;46.108;3.390;2023-05-01T09:06:21;98052.34;;;17.40;64.07
36502;BME280;25393;46.108;3.390;2023-05-01T09:08:48;98060.88;;;17.11;66.09
36502;BME280;25393;46.108;3.390;2023-05-01T09:11:15;98065.41;;;17.04;65.55
36502;BME280;25393;46.108;3.390;2023-05-01T09:13:46;98060.50;;;16.94;67.56
36502;BME280;25393;46.108;3.390;2023-05-01T09:16:13;98059.06;;;16.91;67.85
36502;BME280;25393;46.108;3.390;2023-05-01T09:18:40;98066.44;;;16.96;66.63
36502;BME280;25393;46.108;3.390;2023-05-01T09:21:07;98066.25;;;16.45;66.93
36502;BME280;25393;46.108;3.390;2023-05-01T09:23:33;98068.28;;;16.36;68.94
36502;BME280;25393;46.108;3.390;2023-05-01T09:26:08;98074.06;;;16.40;67.79
36502;BME280;25393;46.108;3.390;2023-05-01T09:28:43;98064.38;;;16.19;67.10
36502;BME280;25393;46.108;3.390;2023-05-01T09:31:20;98090.69;;;16.22;65.55
36502;BME280;25393;46.108;3.390;2023-05-01T09:33:53;98070.03;;;15.83;70.51
36502;BME280;25393;46.108;3.390;2023-05-01T09:36:20;98082.53;;;15.70;71.47
36502;BME280;25393;46.108;3.390;2023-05-01T09:38:48;98074.66;;;15.55;69.81
36502;BME280;25393;46.108;3.390;2023-05-01T09:41:14;98089.47;;;15.51;71.50
36502;BME280;25393;46.108;3.390;2023-05-01T09:43:52;98084.69;;;15.46;72.77
36502;BME280;25393;46.108;3.390;2023-05-01T09:46:19;98093.53;;;15.47;72.84
36502;BME280;25393;46.108;3.390;2023-05-01T09:49:00;98097.25;;;15.53;74.66
36502;BME280;25393;46.108;3.390;2023-05-01T09:51:31;98091.19;;;15.72;72.61
36502;BME280;25393;46.108;3.390;2023-05-01T09:54:00;98097.00;;;15.82;72.56
36502;BME280;25393;46.108;3.390;2023-05-01T09:56:31;98104.63;;;15.98;71.79
36502;BME280;25393;46.108;3.390;2023-05-01T09:59:22;98098.31;;;16.19;73.15
36502;BME280;25393;46.108;3.390;2023-05-01T10:01:48;98095.47;;;16.33;71.14
36502;BME280;25393;46.108;3.390;2023-05-01T10:04:28;98100.81;;;16.33;71.45
36502;BME280;25393;46.108;3.390;2023-05-01T10:06:54;98090.75;;;16.48;69.76
36502;BME280;25393;46.108;3.390;2023-05-01T10:09:28;98096.34;;;16.73;68.79
36502;BME280;25393;46.108;3.390;2023-05-01T10:11:55;98097.13;;;16.54;69.69
36502;BME280;25393;46.108;3.390;2023-05-01T10:14:23;98107.44;;;16.57;72.17
36502;BME280;25393;46.108;3.390;2023-05-01T10:16:51;98080.66;;;16.44;71.52
36502;BME280;25393;46.108;3.390;2023-05-01T10:19:23;98096.94;;;16.49;72.36
36502;BME280;25393;46.108;3.390;2023-05-01T10:21:50;98104.72;;;16.37;72.34
36502;BME280;25393;46.108;3.390;2023-05-01T10:24:17;98111.72;;;16.45;72.55
36502;BME280;25393;46.108;3.390;2023-05-01T10:26:47;98113.09;;;16.08;73.53
36502;BME280;25393;46.108;3.390;2023-05-01T10:29:14;98109.88;;;16.32;73.81
36502;BME280;25393;46.108;3.390;2023-05-01T10:31:43;98095.31;;;16.81;72.11
36502;BME280;25393;46.108;3.390;2023-05-01T10:34:18;98098.44;;;18.13;67.43
36502;BME280;25393;46.108;3.390;2023-05-01T10:36:54;98081.13;;;19.14;62.97
36502;BME280;25393;46.108;3.390;2023-05-01T10:39:30;98094.59;;;19.32;59.67
36502;BME280;25393;46.108;3.390;2023-05-01T10:42:02;98099.09;;;19.38;60.02
36502;BME280;25393;46.108;3.390;2023-05-01T10:44:30;98082.78;;;19.88;61.29
36502;BME280;25393;46.108;3.390;2023-05-01T10:46:57;98092.41;;;19.48;57.76
36502;BME280;25393;46.108;3.390;2023-05-01T10:49:24;98092.97;;;18.64;61.77
36502;BME280;25393;46.108;3.390;2023-05-01T10:54:28;98102.03;;;17.29;67.53
36502;BME280;25393;46.108;3.390;2023-05-01T10:56:56;98106.22;;;16.73;69.46
36502;BME280;25393;46.108;3.390;2023-05-01T10:59:24;98110.94;;;16.64;68.23
36502;BME280;25393;46.108;3.390;2023-05-01T11:01:51;98107.22;;;16.52;69.30
36502;BME280;25393;46.108;3.390;2023-05-01T11:09:53;98114.59;;;16.30;75.46
36502;BME280;25393;46.108;3.390;2023-05-01T11:12:47;98104.69;;;16.11;79.69
36502;BME280;25393;46.108;3.390;2023-05-01T11:15:26;98098.69;;;15.96;83.97
36502;BME280;25393;46.108;3.390;2023-05-01T11:17:53;98097.88;;;16.02;85.95
36502;BME280;25393;46.108;3.390;2023-05-01T11:22:53;98078.38;;;16.41;81.23
36502;BME280;25393;46.108;3.390;2023-05-01T11:25:25;98092.44;;;16.63;77.15
36502;BME280;25393;46.108;3.390;2023-05-01T11:28:02;98086.22;;;17.02;78.05
36502;BME280;25393;46.108;3.390;2023-05-01T11:30:38;98077.66;;;17.57;77.28
36502;BME280;25393;46.108;3.390;2023-05-01T11:33:06;98065.06;;;18.89;72.21
36502;BME280;25393;46.108;3.390;2023-05-01T11:35:36;98049.69;;;20.17;65.43
36502;BME280;25393;46.108;3.390;2023-05-01T11:38:03;98037.06;;;21.06;57.18
36502;BME280;25393;46.108;3.390;2023-05-01T11:40:32;98031.50;;;21.59;55.09
36502;BME280;25393;46.108;3.390;2023-05-01T11:43:01;98023.81;;;22.52;51.75
36502;BME280;25393;46.108;3.390;2023-05-01T11:45:28;98033.38;;;23.10;50.11
36502;BME280;25393;46.108;3.390;2023-05-01T11:47:55;98041.84;;;22.97;50.01
36502;BME280;25393;46.108;3.390;2023-05-01T11:50:34;98036.81;;;23.44;51.52
36502;BME280;25393;46.108;3.390;2023-05-01T11:53:02;98028.16;;;23.85;49.33
36502;BME280;25393;46.108;3.390;2023-05-01T11:55:30;98011.91;;;23.85;47.63
36502;BME280;25393;46.108;3.390;2023-05-01T11:58:00;98021.47;;;22.72;47.40
36502;BME280;25393;46.108;3.390;2023-05-01T12:00:29;98023.31;;;21.94;50.77
36502;BME280;25393;46.108;3.390;2023-05-01T12:03:05;98031.00;;;20.75;51.28
36502;BME280;25393;46.108;3.390;2023-05-01T12:05:33;98031.84;;;19.63;55.72
36502;BME280;25393;46.108;3.390;2023-05-01T12:10:33;98030.16;;;18.40;60.89
36502;BME280;25393;46.108;3.390;2023-05-01T12:13:02;98044.47;;;18.27;62.94
36502;BME280;25393;46.108;3.390;2023-05-01T12:15:31;98040.56;;;19.22;64.25
36502;BME280;25393;46.108;3.390;2023-05-01T12:17:59;98038.97;;;20.82;58.96
36502;BME280;25393;46.108;3.390;2023-05-01T12:20:35;98020.50;;;22.17;55.34
36502;BME280;25393;46.108;3.390;2023-05-01T12:23:07;98019.28;;;21.68;52.08
36502;BME280;25393;46.108;3.390;2023-05-01T12:25:36;98016.47;;;20.88;54.48
36502;BME280;25393;46.108;3.390;2023-05-01T12:28:08;98009.09;;;21.07;55.18
36502;BME280;25393;46.108;3.390;2023-05-01T12:30:38;98014.84;;;21.62;53.56
36502;BME280;25393;46.108;3.390;2023-05-01T12:33:19;98009.09;;;20.95;54.30
36502;BME280;25393;46.108;3.390;2023-05-01T12:35:48;98025.38;;;20.12;57.31
36502;BME280;25393;46.108;3.390;2023-05-01T12:38:21;98023.69;;;20.29;57.87
36502;BME280;25393;46.108;3.390;2023-05-01T12:40:50;98015.56;;;21.97;54.28
36502;BME280;25393;46.108;3.390;2023-05-01T12:43:27;98006.31;;;23.70;50.75
36502;BME280;25393;46.108;3.390;2023-05-01T12:45:55;97999.75;;;24.73;49.32
36502;BME280;25393;46.108;3.390;2023-05-01T12:48:23;97995.75;;;24.80;44.93
36502;BME280;25393;46.108;3.390;2023-05-01T12:50:50;97994.25;;;24.63;46.37
36502;BME280;25393;46.108;3.390;2023-05-01T12:53:24;97990.16;;;24.02;47.71
36502;BME280;25393;46.108;3.390;2023-05-01T12:55:55;97995.13;;;23.39;45.39
36502;BME280;25393;46.108;3.390;2023-05-01T12:58:35;97997.63;;;22.86;48.63
36502;BME280;25393;46.108;3.390;2023-05-01T13:01:03;97999.34;;;23.52;51.08
36502;BME280;25393;46.108;3.390;2023-05-01T13:03:30;97978.16;;;23.93;47.73
36502;BME280;25393;46.108;3.390;2023-05-01T13:06:03;97999.63;;;23.34;48.64
36502;BME280;25393;46.108;3.390;2023-05-01T13:08:33;98002.13;;;22.47;48.08
36502;BME280;25393;46.108;3.390;2023-05-01T13:11:07;98000.22;;;21.86;49.27
36502;BME280;25393;46.108;3.390;2023-05-01T13:13:34;98017.63;;;21.27;50.58
36502;BME280;25393;46.108;3.390;2023-05-01T13:16:08;98019.28;;;20.81;51.76
36502;BME280;25393;46.108;3.390;2023-05-01T13:18:50;98009.22;;;20.54;52.03
36502;BME280;25393;46.108;3.390;2023-05-01T13:21:21;98013.78;;;20.65;51.48
36502;BME280;25393;46.108;3.390;2023-05-01T13:23:52;98012.25;;;20.92;51.12
36502;BME280;25393;46.108;3.390;2023-05-01T13:28:54;98010.75;;;20.96;49.17
36502;BME280;25393;46.108;3.390;2023-05-01T13:31:22;98007.06;;;21.77;48.31
36502;BME280;25393;46.108;3.390;2023-05-01T13:33:51;97997.19;;;23.11;46.54
36502;BME280;25393;46.108;3.390;2023-05-01T13:36:18;97985.81;;;23.74;45.22
36502;BME280;25393;46.108;3.390;2023-05-01T13:38:54;97989.97;;;23.38;44.97
36502;BME280;25393;46.108;3.390;2023-05-01T13:41:23;97982.84;;;23.10;46.32
36502;BME280;25393;46.108;3.390;2023-05-01T13:43:52;97995.75;;;22.86;46.88